sensor_id;sensor_type;location;lat;lon;timestamp;P1;durP1;ratioP1;P2;durP2;ratioP2
41311;SDS011;27061;41.648;24.568;2022-08-01T00:02:01;6.60;;;6.05;;
41311;SDS011;27061;41.648;24.568;2022-08-01T00:04:29;11.43;;;6.78;;
41311;SDS011;27061;41.648;24.568;2022-08-01T00:06:57;6.78;;;6.20;;
41311;SDS011;27061;41.648;24.568;2022-08-01T00:09:24;10.27;;;6.88;;
41311;SDS011;27061;41.648;24.568;2022-08-01T00:11:53;9.90;;;6.80;;
41311;SDS011;27061;41.648;24.568;2022-08-01T00:14:25;12.15;;;7.18;;
41311;SDS011;27061;41.648;24.568;2022-08-01T00:16:58;9.80;;;7.70;;
41311;SDS011;27061;41.648;24.568;2022-08-01T00:19:33;10.93;;;6.90;;
41311;SDS011;27061;41.648;24.568;2022-08-01T00:22:02;6.82;;;6.25;;
41311;SDS011;27061;41.648;24.568;2022-08-01T00:24:30;14.93;;;7.05;;
41311;SDS011;27061;41.648;24.568;2022-08-01T00:26:57;11.18;;;6.90;;
41311;SDS011;27061;41.648;24.568;2022-08-01T00:29:24;7.32;;;6.45;;
41311;SDS011;27061;41.648;24.568;2022-08-01T00:32:13;7.53;;;6.05;;
41311;SDS011;27061;41.648;24.568;2022-08-01T00:34:40;7.03;;;6.35;;
41311;SDS011;27061;41.648;24.568;2022-08-01T00:37:08;12.68;;;7.18;;
41311;SDS011;27061;41.648;24.568;2022-08-01T00:39:42;10.25;;;6.80;;
41311;SDS011;27061;41.648;24.568;2022-08-01T00:42:10;9.45;;;7.38;;
41311;SDS011;27061;41.648;24.568;2022-08-01T00:44:39;17.27;;;7.82;;
41311;SDS011;27061;41.648;24.568;2022-08-01T00:47:07;7.07;;;6.57;;
41311;SDS011;27061;41.648;24.568;2022-08-01T00:49:35;8.55;;;7.28;;
41311;SDS011;27061;41.648;24.568;2022-08-01T00:52:03;9.60;;;7.55;;
41311;SDS011;27061;41.648;24.568;2022-08-01T00:54:33;6.82;;;6.32;;
41311;SDS011;27061;41.648;24.568;2022-08-01T00:57:01;7.45;;;6.85;;
41311;SDS011;27061;41.648;24.568;2022-08-01T00:59:30;7.63;;;6.85;;
41311;SDS011;27061;41.648;24.568;2022-08-01T01:01:57;8.23;;;7.53;;
41311;SDS011;27061;41.648;24.568;2022-08-01T01:04:27;7.70;;;7.05;;
41311;SDS011;27061;41.648;24.568;2022-08-01T01:06:57;8.20;;;7.60;;
41311;SDS011;27061;41.648;24.568;2022-08-01T01:18:14;18.77;;;8.37;;
41311;SDS011;27061;41.648;24.568;2022-08-01T01:27:21;8.80;;;7.90;;
41311;SDS011;27061;41.648;24.568;2022-08-01T01:29:57;7.28;;;6.65;;
41311;SDS011;27061;41.648;24.568;2022-08-01T01:33:02;7.97;;;7.28;;
41311;SDS011;27061;41.648;24.568;2022-08-01T01:35:27;8.10;;;7.32;;
41311;SDS011;27061;41.648;24.568;2022-08-01T01:38:01;11.40;;;6.47;;
41311;SDS011;27061;41.648;24.568;2022-08-01T01:40:35;8.32;;;6.80;;
41311;SDS011;27061;41.648;24.568;2022-08-01T01:43:05;13.68;;;6.97;;
41311;SDS011;27061;41.648;24.568;2022-08-01T01:45:37;6.85;;;6.35;;
41311;SDS011;27061;41.648;24.568;2022-08-01T01:48:07;8.05;;;6.25;;
41311;SDS011;27061;41.648;24.568;2022-08-01T01:50:37;7.15;;;6.43;;
41311;SDS011;27061;41.648;24.568;2022-08-01T01:53:05;6.18;;;5.68;;
41311;SDS011;27061;41.648;24.568;2022-08-01T01:56:01;6.93;;;6.07;;
41311;SDS011;27061;41.648;24.568;2022-08-01T01:58:31;10.45;;;6.15;;
41311;SDS011;27061;41.648;24.568;2022-08-01T02:01:01;9.95;;;6.03;;
41311;SDS011;27061;41.648;24.568;2022-08-01T02:04:07;8.45;;;5.90;;
41311;SDS011;27061;41.648;24.568;2022-08-01T02:06:34;6.82;;;6.22;;
41311;SDS011;27061;41.648;24.568;2022-08-01T02:09:09;18.13;;;6.20;;
41311;SDS011;27061;41.648;24.568;2022-08-01T02:11:38;10.90;;;6.72;;
41311;SDS011;27061;41.648;24.568;2022-08-01T02:14:27;65.03;;;16.52;;
41311;SDS011;27061;41.648;24.568;2022-08-01T02:16:56;26.48;;;9.63;;
41311;SDS011;27061;41.648;24.568;2022-08-01T02:19:25;7.68;;;5.95;;
41311;SDS011;27061;41.648;24.568;2022-08-01T02:21:57;7.20;;;6.40;;
41311;SDS011;27061;41.648;24.568;2022-08-01T02:27:06;20.92;;;6.20;;
41311;SDS011;27061;41.648;24.568;2022-08-01T02:29:38;6.60;;;5.40;;
41311;SDS011;27061;41.648;24.568;2022-08-01T02:32:12;5.75;;;5.20;;
41311;SDS011;27061;41.648;24.568;2022-08-01T02:34:43;5.20;;;4.68;;
41311;SDS011;27061;41.648;24.568;2022-08-01T02:37:17;9.48;;;4.80;;
41311;SDS011;27061;41.648;24.568;2022-08-01T02:39:48;5.13;;;4.70;;
41311;SDS011;27061;41.648;24.568;2022-08-01T02:42:19;16.65;;;5.97;;
41311;SDS011;27061;41.648;24.568;2022-08-01T02:44:50;6.05;;;5.25;;
41311;SDS011;27061;41.648;24.568;2022-08-01T02:47:21;8.57;;;4.70;;
41311;SDS011;27061;41.648;24.568;2022-08-01T02:49:50;5.03;;;4.60;;
41311;SDS011;27061;41.648;24.568;2022-08-01T02:52:20;7.35;;;5.00;;
41311;SDS011;27061;41.648;24.568;2022-08-01T02:54:51;6.07;;;4.90;;
41311;SDS011;27061;41.648;24.568;2022-08-01T02:57:22;5.63;;;4.40;;
41311;SDS011;27061;41.648;24.568;2022-08-01T03:00:11;6.30;;;4.43;;
41311;SDS011;27061;41.648;24.568;2022-08-01T03:02:41;5.20;;;4.70;;
41311;SDS011;27061;41.648;24.568;2022-08-01T03:05:41;4.60;;;4.20;;
41311;SDS011;27061;41.648;24.568;2022-08-01T03:08:10;14.80;;;4.80;;
41311;SDS011;27061;41.648;24.568;2022-08-01T03:10:42;4.30;;;4.00;;
41311;SDS011;27061;41.648;24.568;2022-08-01T03:13:12;13.63;;;5.10;;
41311;SDS011;27061;41.648;24.568;2022-08-01T03:15:41;12.27;;;4.43;;
41311;SDS011;27061;41.648;24.568;2022-08-01T03:18:10;10.65;;;4.68;;
41311;SDS011;27061;41.648;24.568;2022-08-01T03:20:40;7.22;;;4.72;;
41311;SDS011;27061;41.648;24.568;2022-08-01T03:23:10;18.90;;;4.50;;
41311;SDS011;27061;41.648;24.568;2022-08-01T03:25:40;8.20;;;4.05;;
41311;SDS011;27061;41.648;24.568;2022-08-01T03:28:13;6.50;;;4.10;;
41311;SDS011;27061;41.648;24.568;2022-08-01T03:30:47;15.85;;;5.40;;
41311;SDS011;27061;41.648;24.568;2022-08-01T03:33:16;15.50;;;4.93;;
41311;SDS011;27061;41.648;24.568;2022-08-01T03:35:46;7.35;;;3.80;;
41311;SDS011;27061;41.648;24.568;2022-08-01T03:38:17;19.85;;;5.28;;
41311;SDS011;27061;41.648;24.568;2022-08-01T03:40:52;15.95;;;4.50;;
41311;SDS011;27061;41.648;24.568;2022-08-01T03:43:34;23.50;;;4.55;;
41311;SDS011;27061;41.648;24.568;2022-08-01T03:46:06;3.95;;;3.65;;
41311;SDS011;27061;41.648;24.568;2022-08-01T03:48:41;8.07;;;4.07;;
41311;SDS011;27061;41.648;24.568;2022-08-01T03:51:13;11.27;;;4.50;;
41311;SDS011;27061;41.648;24.568;2022-08-01T03:53:42;4.60;;;3.78;;
41311;SDS011;27061;41.648;24.568;2022-08-01T03:56:38;3.95;;;3.75;;
41311;SDS011;27061;41.648;24.568;2022-08-01T03:59:07;12.02;;;4.40;;
41311;SDS011;27061;41.648;24.568;2022-08-01T04:01:36;9.80;;;4.55;;
41311;SDS011;27061;41.648;24.568;2022-08-01T04:04:04;9.50;;;4.20;;
41311;SDS011;27061;41.648;24.568;2022-08-01T04:06:33;6.60;;;4.97;;
41311;SDS011;27061;41.648;24.568;2022-08-01T04:09:04;5.90;;;3.20;;
41311;SDS011;27061;41.648;24.568;2022-08-01T04:11:39;19.17;;;5.07;;
41311;SDS011;27061;41.648;24.568;2022-08-01T04:14:10;11.93;;;5.13;;
41311;SDS011;27061;41.648;24.568;2022-08-01T04:16:37;8.52;;;4.40;;
41311;SDS011;27061;41.648;24.568;2022-08-01T04:19:04;13.32;;;4.03;;
41311;SDS011;27061;41.648;24.568;2022-08-01T04:21:38;35.67;;;12.13;;
41311;SDS011;27061;41.648;24.568;2022-08-01T04:24:16;8.30;;;4.90;;
41311;SDS011;27061;41.648;24.568;2022-08-01T04:26:45;10.95;;;5.53;;
41311;SDS011;27061;41.648;24.568;2022-08-01T04:29:15;12.27;;;4.10;;
41311;SDS011;27061;41.648;24.568;2022-08-01T04:31:45;4.63;;;4.22;;
41311;SDS011;27061;41.648;24.568;2022-08-01T04:34:16;5.50;;;3.55;;
41311;SDS011;27061;41.648;24.568;2022-08-01T04:36:47;6.85;;;3.92;;
41311;SDS011;27061;41.648;24.568;2022-08-01T04:39:41;4.30;;;3.35;;
41311;SDS011;27061;41.648;24.568;2022-08-01T04:42:17;5.75;;;3.65;;
41311;SDS011;27061;41.648;24.568;2022-08-01T04:44:58;4.82;;;3.33;;
41311;SDS011;27061;41.648;24.568;2022-08-01T04:47:27;3.15;;;2.95;;
41311;SDS011;27061;41.648;24.568;2022-08-01T04:49:57;6.13;;;3.28;;
41311;SDS011;27061;41.648;24.568;2022-08-01T04:52:51;5.47;;;3.33;;
41311;SDS011;27061;41.648;24.568;2022-08-01T04:55:45;2.97;;;2.75;;
41311;SDS011;27061;41.648;24.568;2022-08-01T04:58:13;4.50;;;2.70;;
41311;SDS011;27061;41.648;24.568;2022-08-01T05:00:44;6.45;;;2.80;;
41311;SDS011;27061;41.648;24.568;2022-08-01T05:06:30;6.95;;;2.80;;
41311;SDS011;27061;41.648;24.568;2022-08-01T05:08:58;2.75;;;2.47;;
41311;SDS011;27061;41.648;24.568;2022-08-01T05:11:25;7.80;;;2.97;;
41311;SDS011;27061;41.648;24.568;2022-08-01T05:13:53;5.45;;;2.90;;
41311;SDS011;27061;41.648;24.568;2022-08-01T05:16:20;5.13;;;2.67;;
41311;SDS011;27061;41.648;24.568;2022-08-01T05:21:40;4.20;;;2.80;;
41311;SDS011;27061;41.648;24.568;2022-08-01T05:24:08;19.92;;;3.55;;
41311;SDS011;27061;41.648;24.568;2022-08-01T05:26:35;18.83;;;3.45;;
41311;SDS011;27061;41.648;24.568;2022-08-01T05:29:03;2.65;;;2.50;;
41311;SDS011;27061;41.648;24.568;2022-08-01T05:31:31;3.05;;;2.10;;
41311;SDS011;27061;41.648;24.568;2022-08-01T05:34:01;4.15;;;2.28;;
41311;SDS011;27061;41.648;24.568;2022-08-01T05:36:29;7.85;;;2.47;;
41311;SDS011;27061;41.648;24.568;2022-08-01T05:38:56;9.20;;;3.25;;
41311;SDS011;27061;41.648;24.568;2022-08-01T05:41:24;24.58;;;2.88;;
41311;SDS011;27061;41.648;24.568;2022-08-01T05:43:51;3.38;;;2.47;;
41311;SDS011;27061;41.648;24.568;2022-08-01T05:49:37;5.97;;;2.42;;
41311;SDS011;27061;41.648;24.568;2022-08-01T05:52:07;6.38;;;1.88;;
41311;SDS011;27061;41.648;24.568;2022-08-01T05:54:35;16.48;;;2.67;;
41311;SDS011;27061;41.648;24.568;2022-08-01T05:57:27;13.38;;;2.58;;
41311;SDS011;27061;41.648;24.568;2022-08-01T05:59:55;7.05;;;2.13;;
41311;SDS011;27061;41.648;24.568;2022-08-01T06:02:22;2.03;;;1.48;;
41311;SDS011;27061;41.648;24.568;2022-08-01T06:04:50;7.03;;;1.95;;
41311;SDS011;27061;41.648;24.568;2022-08-01T06:07:18;2.95;;;1.98;;
41311;SDS011;27061;41.648;24.568;2022-08-01T06:09:46;13.15;;;2.38;;
41311;SDS011;27061;41.648;24.568;2022-08-01T06:12:13;8.68;;;2.10;;
41311;SDS011;27061;41.648;24.568;2022-08-01T06:14:41;2.58;;;1.92;;
41311;SDS011;27061;41.648;24.568;2022-08-01T06:17:08;1.80;;;1.70;;
41311;SDS011;27061;41.648;24.568;2022-08-01T06:19:36;7.57;;;2.00;;
41311;SDS011;27061;41.648;24.568;2022-08-01T06:22:03;5.03;;;1.98;;
41311;SDS011;27061;41.648;24.568;2022-08-01T06:24:31;1.73;;;1.63;;
41311;SDS011;27061;41.648;24.568;2022-08-01T06:26:59;2.50;;;2.10;;
41311;SDS011;27061;41.648;24.568;2022-08-01T06:29:47;4.28;;;2.08;;
41311;SDS011;27061;41.648;24.568;2022-08-01T06:32:20;1.92;;;1.83;;
41311;SDS011;27061;41.648;24.568;2022-08-01T06:34:53;4.20;;;1.70;;
41311;SDS011;27061;41.648;24.568;2022-08-01T06:37:23;2.25;;;1.98;;
41311;SDS011;27061;41.648;24.568;2022-08-01T06:39:50;3.78;;;1.70;;
41311;SDS011;27061;41.648;24.568;2022-08-01T06:42:17;2.60;;;2.08;;
41311;SDS011;27061;41.648;24.568;2022-08-01T06:44:46;3.47;;;1.63;;
41311;SDS011;27061;41.648;24.568;2022-08-01T06:47:13;2.03;;;1.92;;
41311;SDS011;27061;41.648;24.568;2022-08-01T06:49:42;6.32;;;1.92;;
41311;SDS011;27061;41.648;24.568;2022-08-01T06:52:09;4.50;;;2.10;;
41311;SDS011;27061;41.648;24.568;2022-08-01T06:57:29;2.15;;;2.03;;
41311;SDS011;27061;41.648;24.568;2022-08-01T07:00:22;2.85;;;2.10;;
41311;SDS011;27061;41.648;24.568;2022-08-01T07:02:53;2.60;;;1.73;;
41311;SDS011;27061;41.648;24.568;2022-08-01T07:05:23;6.82;;;2.03;;
41311;SDS011;27061;41.648;24.568;2022-08-01T07:10:43;3.97;;;1.90;;
41311;SDS011;27061;41.648;24.568;2022-08-01T07:13:11;1.88;;;1.77;;
41311;SDS011;27061;41.648;24.568;2022-08-01T07:15:39;3.75;;;1.60;;
41311;SDS011;27061;41.648;24.568;2022-08-01T07:20:59;1.88;;;1.77;;
41311;SDS011;27061;41.648;24.568;2022-08-01T07:23:56;5.22;;;1.85;;
41311;SDS011;27061;41.648;24.568;2022-08-01T07:26:24;2.60;;;1.65;;
41311;SDS011;27061;41.648;24.568;2022-08-01T07:29:23;1.77;;;1.67;;
41311;SDS011;27061;41.648;24.568;2022-08-01T07:31:53;2.13;;;1.60;;
41311;SDS011;27061;41.648;24.568;2022-08-01T07:34:22;2.25;;;2.10;;
41311;SDS011;27061;41.648;24.568;2022-08-01T07:40:03;2.92;;;1.40;;
41311;SDS011;27061;41.648;24.568;2022-08-01T07:42:32;17.20;;;1.92;;
41311;SDS011;27061;41.648;24.568;2022-08-01T07:44:59;3.70;;;1.70;;
41311;SDS011;27061;41.648;24.568;2022-08-01T07:47:28;3.45;;;2.15;;
41311;SDS011;27061;41.648;24.568;2022-08-01T07:49:59;1.73;;;1.60;;
41311;SDS011;27061;41.648;24.568;2022-08-01T07:52:50;1.88;;;1.77;;
41311;SDS011;27061;41.648;24.568;2022-08-01T07:55:18;12.50;;;2.95;;
41311;SDS011;27061;41.648;24.568;2022-08-01T07:58:37;3.35;;;1.70;;
41311;SDS011;27061;41.648;24.568;2022-08-01T08:03:59;1.55;;;1.45;;
41311;SDS011;27061;41.648;24.568;2022-08-01T08:06:50;2.25;;;1.77;;
41311;SDS011;27061;41.648;24.568;2022-08-01T08:09:20;1.60;;;1.50;;
41311;SDS011;27061;41.648;24.568;2022-08-01T08:11:48;2.08;;;1.65;;
41311;SDS011;27061;41.648;24.568;2022-08-01T08:14:16;6.30;;;1.83;;
41311;SDS011;27061;41.648;24.568;2022-08-01T08:16:58;1.90;;;1.80;;
41311;SDS011;27061;41.648;24.568;2022-08-01T08:19:28;2.25;;;1.70;;
41311;SDS011;27061;41.648;24.568;2022-08-01T08:22:04;3.70;;;1.63;;
41311;SDS011;27061;41.648;24.568;2022-08-01T08:24:35;2.15;;;1.70;;
41311;SDS011;27061;41.648;24.568;2022-08-01T08:27:12;2.08;;;1.77;;
41311;SDS011;27061;41.648;24.568;2022-08-01T08:29:41;2.28;;;1.67;;
41311;SDS011;27061;41.648;24.568;2022-08-01T08:32:08;1.40;;;1.30;;
41311;SDS011;27061;41.648;24.568;2022-08-01T08:34:37;3.83;;;1.58;;
41311;SDS011;27061;41.648;24.568;2022-08-01T08:37:04;3.72;;;1.55;;
41311;SDS011;27061;41.648;24.568;2022-08-01T08:39:35;9.30;;;2.67;;
41311;SDS011;27061;41.648;24.568;2022-08-01T08:42:09;4.40;;;2.30;;
41311;SDS011;27061;41.648;24.568;2022-08-01T08:44:39;1.90;;;1.60;;
41311;SDS011;27061;41.648;24.568;2022-08-01T08:47:11;4.60;;;1.55;;
41311;SDS011;27061;41.648;24.568;2022-08-01T08:49:45;3.25;;;1.70;;
41311;SDS011;27061;41.648;24.568;2022-08-01T08:52:17;2.53;;;1.98;;
41311;SDS011;27061;41.648;24.568;2022-08-01T08:54:47;1.65;;;1.58;;
41311;SDS011;27061;41.648;24.568;2022-08-01T08:58:06;1.20;;;1.20;;
41311;SDS011;27061;41.648;24.568;2022-08-01T09:00:33;2.33;;;1.77;;
41311;SDS011;27061;41.648;24.568;2022-08-01T09:06:22;3.65;;;1.92;;
41311;SDS011;27061;41.648;24.568;2022-08-01T09:08:53;2.22;;;1.58;;
41311;SDS011;27061;41.648;24.568;2022-08-01T09:11:21;2.17;;;1.50;;
41311;SDS011;27061;41.648;24.568;2022-08-01T09:14:08;1.77;;;1.45;;
41311;SDS011;27061;41.648;24.568;2022-08-01T09:16:41;7.47;;;1.85;;
41311;SDS011;27061;41.648;24.568;2022-08-01T09:19:16;2.47;;;1.40;;
41311;SDS011;27061;41.648;24.568;2022-08-01T09:22:06;1.58;;;1.48;;
41311;SDS011;27061;41.648;24.568;2022-08-01T09:24:37;8.45;;;2.15;;
41311;SDS011;27061;41.648;24.568;2022-08-01T09:27:17;1.95;;;1.80;;
41311;SDS011;27061;41.648;24.568;2022-08-01T09:29:48;1.70;;;1.60;;
41311;SDS011;27061;41.648;24.568;2022-08-01T09:32:31;2.95;;;1.58;;
41311;SDS011;27061;41.648;24.568;2022-08-01T09:38:17;3.85;;;1.70;;
41311;SDS011;27061;41.648;24.568;2022-08-01T09:43:48;3.80;;;1.60;;
41311;SDS011;27061;41.648;24.568;2022-08-01T09:46:19;5.97;;;1.60;;
41311;SDS011;27061;41.648;24.568;2022-08-01T09:49:03;1.70;;;1.60;;
41311;SDS011;27061;41.648;24.568;2022-08-01T09:51:36;6.03;;;1.40;;
41311;SDS011;27061;41.648;24.568;2022-08-01T09:54:27;3.05;;;1.70;;
41311;SDS011;27061;41.648;24.568;2022-08-01T09:59:56;3.47;;;1.58;;
41311;SDS011;27061;41.648;24.568;2022-08-01T10:02:38;3.40;;;1.50;;
41311;SDS011;27061;41.648;24.568;2022-08-01T10:05:12;2.77;;;1.90;;
41311;SDS011;27061;41.648;24.568;2022-08-01T10:07:56;4.45;;;1.45;;
41311;SDS011;27061;41.648;24.568;2022-08-01T10:10:27;5.78;;;1.40;;
41311;SDS011;27061;41.648;24.568;2022-08-01T10:13:21;3.00;;;1.55;;
41311;SDS011;27061;41.648;24.568;2022-08-01T10:15:50;1.40;;;1.30;;
41311;SDS011;27061;41.648;24.568;2022-08-01T10:18:17;4.00;;;1.30;;
41311;SDS011;27061;41.648;24.568;2022-08-01T10:20:52;6.38;;;2.60;;
41311;SDS011;27061;41.648;24.568;2022-08-01T10:23:24;1.73;;;1.50;;
41311;SDS011;27061;41.648;24.568;2022-08-01T10:26:07;8.20;;;2.38;;
41311;SDS011;27061;41.648;24.568;2022-08-01T10:28:37;1.33;;;1.20;;
41311;SDS011;27061;41.648;24.568;2022-08-01T10:31:50;1.52;;;1.42;;
41311;SDS011;27061;41.648;24.568;2022-08-01T10:34:26;1.88;;;1.77;;
41311;SDS011;27061;41.648;24.568;2022-08-01T10:36:57;4.63;;;1.33;;
41311;SDS011;27061;41.648;24.568;2022-08-01T10:39:30;1.52;;;1.35;;
41311;SDS011;27061;41.648;24.568;2022-08-01T10:41:59;2.80;;;1.98;;
41311;SDS011;27061;41.648;24.568;2022-08-01T10:44:30;2.30;;;1.63;;
41311;SDS011;27061;41.648;24.568;2022-08-01T10:47:04;1.58;;;1.50;;
41311;SDS011;27061;41.648;24.568;2022-08-01T10:49:51;2.00;;;1.60;;
41311;SDS011;27061;41.648;24.568;2022-08-01T10:58:45;5.25;;;1.50;;
41311;SDS011;27061;41.648;24.568;2022-08-01T11:04:05;1.88;;;1.77;;
41311;SDS011;27061;41.648;24.568;2022-08-01T11:09:42;6.95;;;1.25;;
41311;SDS011;27061;41.648;24.568;2022-08-01T11:12:17;3.13;;;1.95;;
41311;SDS011;27061;41.648;24.568;2022-08-01T11:17:38;1.70;;;1.60;;
41311;SDS011;27061;41.648;24.568;2022-08-01T11:23:17;2.95;;;1.58;;
41311;SDS011;27061;41.648;24.568;2022-08-01T11:26:09;1.83;;;1.70;;
41311;SDS011;27061;41.648;24.568;2022-08-01T11:31:47;3.33;;;1.80;;
41311;SDS011;27061;41.648;24.568;2022-08-01T11:34:15;6.53;;;1.58;;
41311;SDS011;27061;41.648;24.568;2022-08-01T11:36:43;2.10;;;1.55;;
41311;SDS011;27061;41.648;24.568;2022-08-01T11:39:32;1.80;;;1.70;;
41311;SDS011;27061;41.648;24.568;2022-08-01T11:42:18;1.90;;;1.80;;
41311;SDS011;27061;41.648;24.568;2022-08-01T11:44:49;12.05;;;2.10;;
41311;SDS011;27061;41.648;24.568;2022-08-01T11:47:46;4.18;;;2.03;;
41311;SDS011;27061;41.648;24.568;2022-08-01T11:50:34;1.52;;;1.42;;
41311;SDS011;27061;41.648;24.568;2022-08-01T11:53:05;2.88;;;1.67;;
41311;SDS011;27061;41.648;24.568;2022-08-01T11:56:00;1.77;;;1.67;;
41311;SDS011;27061;41.648;24.568;2022-08-01T11:58:28;1.60;;;1.52;;
41311;SDS011;27061;41.648;24.568;2022-08-01T12:00:58;4.95;;;1.88;;
41311;SDS011;27061;41.648;24.568;2022-08-01T12:03:26;4.95;;;1.90;;
41311;SDS011;27061;41.648;24.568;2022-08-01T12:06:28;1.63;;;1.55;;
41311;SDS011;27061;41.648;24.568;2022-08-01T12:09:14;5.72;;;1.95;;
41311;SDS011;27061;41.648;24.568;2022-08-01T12:11:48;5.10;;;1.73;;
41311;SDS011;27061;41.648;24.568;2022-08-01T12:14:18;2.72;;;1.60;;
41311;SDS011;27061;41.648;24.568;2022-08-01T12:16:53;2.25;;;1.83;;
41311;SDS011;27061;41.648;24.568;2022-08-01T12:19:24;2.15;;;1.92;;
41311;SDS011;27061;41.648;24.568;2022-08-01T12:24:55;1.88;;;1.52;;
41311;SDS011;27061;41.648;24.568;2022-08-01T12:27:48;2.08;;;1.92;;
41311;SDS011;27061;41.648;24.568;2022-08-01T12:30:28;5.13;;;1.73;;
41311;SDS011;27061;41.648;24.568;2022-08-01T12:32:57;7.68;;;2.20;;
41311;SDS011;27061;41.648;24.568;2022-08-01T12:35:26;5.45;;;1.83;;
41311;SDS011;27061;41.648;24.568;2022-08-01T12:38:02;7.65;;;4.05;;
41311;SDS011;27061;41.648;24.568;2022-08-01T12:40:33;8.52;;;2.08;;
41311;SDS011;27061;41.648;24.568;2022-08-01T12:46:00;2.13;;;2.03;;
41311;SDS011;27061;41.648;24.568;2022-08-01T12:48:29;1.90;;;1.80;;
41311;SDS011;27061;41.648;24.568;2022-08-01T12:50:58;12.43;;;2.33;;
41311;SDS011;27061;41.648;24.568;2022-08-01T12:53:28;4.28;;;1.75;;
41311;SDS011;27061;41.648;24.568;2022-08-01T12:56:08;11.13;;;1.60;;
41311;SDS011;27061;41.648;24.568;2022-08-01T12:58:37;3.20;;;1.75;;
41311;SDS011;27061;41.648;24.568;2022-08-01T13:01:11;1.73;;;1.63;;
41311;SDS011;27061;41.648;24.568;2022-08-01T13:03:40;2.55;;;1.85;;
41311;SDS011;27061;41.648;24.568;2022-08-01T13:06:12;2.17;;;1.88;;
41311;SDS011;27061;41.648;24.568;2022-08-01T13:08:46;3.67;;;1.58;;
41311;SDS011;27061;41.648;24.568;2022-08-01T13:11:15;3.15;;;1.90;;
41311;SDS011;27061;41.648;24.568;2022-08-01T13:13:44;3.20;;;1.80;;
41311;SDS011;27061;41.648;24.568;2022-08-01T13:16:19;1.70;;;1.60;;
41311;SDS011;27061;41.648;24.568;2022-08-01T13:19:00;1.92;;;1.83;;
41311;SDS011;27061;41.648;24.568;2022-08-01T13:21:29;2.97;;;1.73;;
41311;SDS011;27061;41.648;24.568;2022-08-01T13:24:28;2.13;;;1.90;;
41311;SDS011;27061;41.648;24.568;2022-08-01T13:29:52;1.65;;;1.60;;
41311;SDS011;27061;41.648;24.568;2022-08-01T13:32:25;2.97;;;1.80;;
41311;SDS011;27061;41.648;24.568;2022-08-01T13:35:02;2.80;;;2.60;;
41311;SDS011;27061;41.648;24.568;2022-08-01T13:37:34;5.93;;;1.58;;
41311;SDS011;27061;41.648;24.568;2022-08-01T13:40:08;2.22;;;2.00;;
41311;SDS011;27061;41.648;24.568;2022-08-01T13:43:02;4.20;;;1.92;;
41311;SDS011;27061;41.648;24.568;2022-08-01T13:45:29;4.43;;;1.73;;
41311;SDS011;27061;41.648;24.568;2022-08-01T13:48:23;9.35;;;2.38;;
41311;SDS011;27061;41.648;24.568;2022-08-01T13:50:50;3.40;;;1.75;;
41311;SDS011;27061;41.648;24.568;2022-08-01T13:56:27;1.80;;;1.70;;
41311;SDS011;27061;41.648;24.568;2022-08-01T13:58:56;1.83;;;1.73;;
41311;SDS011;27061;41.648;24.568;2022-08-01T14:01:23;1.70;;;1.60;;
41311;SDS011;27061;41.648;24.568;2022-08-01T14:03:59;3.90;;;2.10;;
41311;SDS011;27061;41.648;24.568;2022-08-01T14:06:53;3.40;;;1.83;;
41311;SDS011;27061;41.648;24.568;2022-08-01T14:09:21;2.40;;;1.88;;
41311;SDS011;27061;41.648;24.568;2022-08-01T14:11:58;1.38;;;1.38;;
41311;SDS011;27061;41.648;24.568;2022-08-01T14:17:19;4.72;;;1.80;;
41311;SDS011;27061;41.648;24.568;2022-08-01T14:19:47;6.15;;;1.80;;
41311;SDS011;27061;41.648;24.568;2022-08-01T14:22:15;1.80;;;1.70;;
41311;SDS011;27061;41.648;24.568;2022-08-01T14:27:35;3.08;;;1.67;;
41311;SDS011;27061;41.648;24.568;2022-08-01T14:30:09;5.80;;;2.08;;
41311;SDS011;27061;41.648;24.568;2022-08-01T14:32:38;8.60;;;2.15;;
41311;SDS011;27061;41.648;24.568;2022-08-01T14:35:06;3.67;;;1.70;;
41311;SDS011;27061;41.648;24.568;2022-08-01T14:37:34;2.80;;;1.70;;
41311;SDS011;27061;41.648;24.568;2022-08-01T14:40:05;2.90;;;2.17;;
41311;SDS011;27061;41.648;24.568;2022-08-01T14:42:59;2.35;;;2.05;;
41311;SDS011;27061;41.648;24.568;2022-08-01T14:45:59;4.20;;;1.95;;
41311;SDS011;27061;41.648;24.568;2022-08-01T14:48:29;2.65;;;2.42;;
41311;SDS011;27061;41.648;24.568;2022-08-01T14:50:57;4.65;;;2.55;;
41311;SDS011;27061;41.648;24.568;2022-08-01T14:53:30;2.15;;;2.00;;
41311;SDS011;27061;41.648;24.568;2022-08-01T14:56:02;2.40;;;1.90;;
41311;SDS011;27061;41.648;24.568;2022-08-01T14:58:31;1.55;;;1.55;;
41311;SDS011;27061;41.648;24.568;2022-08-01T15:00:59;2.25;;;2.03;;
41311;SDS011;27061;41.648;24.568;2022-08-01T15:03:26;2.10;;;1.92;;
41311;SDS011;27061;41.648;24.568;2022-08-01T15:06:24;2.65;;;2.45;;
41311;SDS011;27061;41.648;24.568;2022-08-01T15:08:51;1.83;;;1.73;;
41311;SDS011;27061;41.648;24.568;2022-08-01T15:11:19;3.90;;;1.75;;
41311;SDS011;27061;41.648;24.568;2022-08-01T15:13:46;2.65;;;2.40;;
41311;SDS011;27061;41.648;24.568;2022-08-01T15:16:35;2.13;;;2.03;;
41311;SDS011;27061;41.648;24.568;2022-08-01T15:19:03;2.00;;;1.90;;
41311;SDS011;27061;41.648;24.568;2022-08-01T15:24:27;3.42;;;1.48;;
41311;SDS011;27061;41.648;24.568;2022-08-01T15:29:48;6.63;;;1.80;;
41311;SDS011;27061;41.648;24.568;2022-08-01T15:32:17;9.50;;;1.85;;
41311;SDS011;27061;41.648;24.568;2022-08-01T15:34:45;4.40;;;2.30;;
41311;SDS011;27061;41.648;24.568;2022-08-01T15:37:12;1.60;;;1.55;;
41311;SDS011;27061;41.648;24.568;2022-08-01T15:39:41;2.92;;;1.67;;
41311;SDS011;27061;41.648;24.568;2022-08-01T15:42:10;10.88;;;1.95;;
41311;SDS011;27061;41.648;24.568;2022-08-01T15:44:45;2.75;;;2.20;;
41311;SDS011;27061;41.648;24.568;2022-08-01T15:47:13;1.77;;;1.67;;
41311;SDS011;27061;41.648;24.568;2022-08-01T15:49:41;2.35;;;1.77;;
41311;SDS011;27061;41.648;24.568;2022-08-01T15:52:08;3.88;;;2.97;;
41311;SDS011;27061;41.648;24.568;2022-08-01T15:54:48;4.70;;;1.58;;
41311;SDS011;27061;41.648;24.568;2022-08-01T15:57:16;5.32;;;1.73;;
41311;SDS011;27061;41.648;24.568;2022-08-01T15:59:44;2.25;;;1.85;;
41311;SDS011;27061;41.648;24.568;2022-08-01T16:02:11;1.98;;;1.80;;
41311;SDS011;27061;41.648;24.568;2022-08-01T16:07:33;1.95;;;1.83;;
41311;SDS011;27061;41.648;24.568;2022-08-01T16:10:26;1.73;;;1.60;;
41311;SDS011;27061;41.648;24.568;2022-08-01T16:12:54;5.28;;;1.80;;
41311;SDS011;27061;41.648;24.568;2022-08-01T16:16:11;10.40;;;2.00;;
41311;SDS011;27061;41.648;24.568;2022-08-01T16:18:40;2.03;;;1.92;;
41311;SDS011;27061;41.648;24.568;2022-08-01T16:24:26;4.63;;;2.17;;
41311;SDS011;27061;41.648;24.568;2022-08-01T16:26:56;3.92;;;1.80;;
41311;SDS011;27061;41.648;24.568;2022-08-01T16:29:53;4.88;;;1.60;;
41311;SDS011;27061;41.648;24.568;2022-08-01T16:32:21;6.03;;;1.83;;
41311;SDS011;27061;41.648;24.568;2022-08-01T16:35:07;2.80;;;1.90;;
41311;SDS011;27061;41.648;24.568;2022-08-01T16:37:39;4.85;;;1.67;;
41311;SDS011;27061;41.648;24.568;2022-08-01T16:43:14;3.53;;;1.70;;
41311;SDS011;27061;41.648;24.568;2022-08-01T16:45:43;2.83;;;2.45;;
41311;SDS011;27061;41.648;24.568;2022-08-01T16:48:11;3.45;;;1.90;;
41311;SDS011;27061;41.648;24.568;2022-08-01T16:50:42;3.42;;;1.50;;
41311;SDS011;27061;41.648;24.568;2022-08-01T16:53:17;6.45;;;1.55;;
41311;SDS011;27061;41.648;24.568;2022-08-01T16:55:46;8.63;;;2.10;;
41311;SDS011;27061;41.648;24.568;2022-08-01T16:58:18;6.00;;;2.00;;
41311;SDS011;27061;41.648;24.568;2022-08-01T17:04:07;4.45;;;1.70;;